Eden Valley, Minnesota
Current Conditions -  °F | °C
As of 4:54 AM on Friday 24 Oct 2014 (Local Time) from KPEX Reporting Station
Clear Clear  
Wind Chill:   Ceiling: Unl
Heat Index:   Visibility: 10mi
Dew Point:   Wind: 5mph
Humidity: 80%   Direction: 120°ESE
Pressure: 29.88"   Gusts: NA
Location:  45.33°N, 94.55°W
Report Text: KPEX 240954Z AUTO 12004KT 10SM CLR 08/05 A2988 RMK AO2 T00840051
Loading
Personal Weather Stations






























Interactive Weather Map
Tropical Storm Tracking
New forecast layout! Learn more

10-Day Weather Forecast

Advertisements
Track Severe Weather on mobile